createdAt,value
2023-06-24T00:06:09.744Z,18.00
2023-06-24T00:16:33.722Z,21.45
2023-06-24T00:26:55.616Z,23.85
2023-06-24T00:37:18.107Z,26.58
2023-06-24T00:47:50.655Z,28.08
2023-06-24T00:58:17.034Z,43.42
2023-06-24T01:08:39.697Z,47.20
2023-06-24T01:19:10.270Z,53.67
2023-06-24T01:29:39.113Z,55.58
2023-06-24T01:40:10.495Z,50.28
2023-06-24T01:50:35.461Z,41.85
2023-06-24T02:01:22.411Z,45.85
2023-06-24T02:11:47.620Z,41.00
2023-06-24T02:22:11.007Z,42.35
2023-06-24T02:32:34.016Z,49.33
2023-06-24T02:42:55.462Z,43.08
2023-06-24T02:53:18.745Z,33.55
2023-06-24T03:03:43.143Z,38.73
2023-06-24T03:24:46.211Z,27.65
2023-06-24T03:35:10.203Z,26.80
2023-06-24T03:45:33.281Z,28.33
2023-06-24T03:55:56.786Z,26.67
2023-06-24T04:06:18.224Z,19.98
2023-06-24T04:16:42.443Z,24.27
2023-06-24T04:27:04.236Z,26.13
2023-06-24T04:37:27.335Z,27.63
2023-06-24T04:47:49.943Z,26.02
2023-06-24T04:58:12.961Z,20.40
2023-06-24T05:08:36.741Z,23.02
2023-06-24T05:18:59.939Z,17.85
2023-06-24T05:29:21.487Z,17.58
2023-06-24T05:39:45.402Z,19.02
2023-06-24T05:50:07.255Z,17.48
2023-06-24T06:00:34.442Z,15.27
2023-06-24T06:11:04.556Z,13.55
2023-06-24T06:21:27.855Z,17.60
2023-06-24T06:31:51.425Z,13.70
2023-06-24T06:42:15.684Z,11.82
2023-06-24T06:52:37.363Z,16.40
2023-06-24T07:03:00.133Z,11.40
2023-06-24T07:13:21.472Z,11.98
2023-06-24T07:23:44.364Z,11.48
2023-06-24T07:34:07.250Z,10.32
2023-06-24T07:44:30.152Z,14.23
2023-06-24T07:54:51.820Z,14.17
2023-06-24T08:05:14.888Z,7.20
2023-06-24T08:15:42.897Z,6.17
2023-06-24T08:26:16.580Z,6.63
2023-06-24T08:36:57.213Z,10.13
2023-06-24T08:47:20.512Z,9.55
2023-06-24T08:57:42.199Z,6.38
2023-06-24T09:08:04.887Z,6.43
2023-06-24T09:18:40.473Z,8.57
2023-06-24T09:29:03.821Z,6.38
2023-06-24T09:39:30.695Z,6.50
2023-06-24T09:49:58.029Z,8.57
2023-06-24T10:00:20.928Z,9.80
2023-06-24T10:10:44.045Z,6.93
2023-06-24T10:21:05.536Z,5.87
2023-06-24T10:31:52.599Z,7.15
2023-06-24T10:42:34.242Z,5.55
2023-06-24T10:52:58.404Z,6.32
2023-06-24T11:03:21.423Z,5.65
2023-06-24T11:13:44.770Z,4.93
2023-06-24T11:24:08.444Z,6.93
2023-06-24T11:34:31.138Z,6.32
2023-06-24T11:44:53.410Z,10.23
2023-06-24T11:55:18.282Z,6.90
2023-06-24T12:05:45.572Z,5.72
2023-06-24T12:16:09.212Z,5.78
2023-06-24T12:26:30.484Z,6.75
2023-06-24T12:36:54.529Z,7.80
2023-06-24T12:47:19.075Z,5.45
2023-06-24T12:57:42.045Z,5.10
2023-06-24T13:08:04.494Z,5.03
2023-06-24T13:18:27.917Z,6.82
2023-06-24T13:28:50.458Z,7.35
2023-06-24T13:39:13.652Z,6.90
2023-06-24T13:49:38.564Z,6.20
2023-06-24T14:00:01.593Z,8.07
2023-06-24T14:10:23.461Z,12.70
2023-06-24T14:20:48.455Z,8.15
2023-06-24T14:31:09.831Z,5.07
2023-06-24T14:41:32.763Z,5.63
2023-06-24T14:51:54.522Z,8.65
2023-06-24T15:02:18.543Z,6.72
2023-06-24T15:12:41.226Z,7.63
2023-06-24T15:23:07.567Z,6.65
2023-06-24T15:33:30.530Z,8.98
2023-06-24T15:44:05.889Z,5.75
2023-06-24T15:54:27.366Z,7.95
2023-06-24T16:04:52.609Z,7.15
2023-06-24T16:15:14.964Z,7.28
2023-06-24T16:25:37.787Z,6.05
2023-06-24T16:35:59.544Z,7.63
2023-06-24T16:46:23.358Z,6.38
2023-06-24T16:56:45.484Z,6.53
2023-06-24T17:07:08.264Z,6.78
2023-06-24T17:17:29.612Z,8.13
2023-06-24T17:27:53.696Z,6.65
2023-06-24T17:38:15.058Z,5.93
2023-06-24T17:58:59.034Z,6.20
2023-06-24T18:09:21.473Z,5.47
2023-06-24T18:19:45.827Z,8.00
2023-06-24T18:30:08.519Z,6.78
2023-06-24T18:40:31.243Z,7.68
2023-06-24T18:50:54.755Z,5.85
2023-06-24T19:01:19.763Z,6.72
2023-06-24T19:11:41.294Z,8.00
2023-06-24T19:22:06.374Z,7.53
2023-06-24T19:32:29.501Z,5.60
2023-06-24T19:42:52.341Z,8.75
2023-06-24T19:53:14.025Z,8.20
2023-06-24T20:03:36.558Z,6.05
2023-06-24T20:14:00.012Z,10.43
2023-06-24T20:24:24.003Z,9.63
2023-06-24T20:34:45.196Z,9.35
2023-06-24T20:45:08.962Z,9.07
2023-06-24T20:55:30.813Z,8.52
2023-06-24T21:05:53.637Z,15.95
2023-06-24T21:16:15.116Z,12.15
2023-06-24T21:26:37.882Z,13.32
2023-06-24T21:36:59.666Z,13.98
2023-06-24T21:47:22.971Z,16.55
2023-06-24T21:57:45.197Z,13.00
2023-06-24T22:08:08.738Z,19.35
2023-06-24T22:18:30.885Z,24.73
2023-06-24T22:28:53.482Z,27.52
2023-06-24T22:39:15.881Z,26.45
2023-06-24T22:49:38.930Z,25.55
2023-06-24T23:00:00.384Z,34.95
2023-06-24T23:10:23.946Z,25.42
2023-06-24T23:20:45.670Z,24.73
2023-06-24T23:31:13.611Z,28.88
2023-06-24T23:41:35.646Z,26.30
2023-06-24T23:51:58.520Z,75.25
